Saint Marys, Indiana
Current Conditions -  °F | °C
As of 7:54 PM on Wednesday 17 Dec 2014 (Local Time) from KSBN Reporting Station
Overcast Overcast  
Wind Chill: -7°   Ceiling: 2400
Heat Index: -2°   Visibility: 10mi
Dew Point: -6°   Wind: 8mph
Humidity: 75%   Direction: 300°WNW
Pressure: 30.22"   Gusts: NA
Location:  41.7197°N, 86.2504°W
Report Text: KSBN 180054Z 30007KT 10SM BKN024 OVC030 M02/M06 A3022 RMK AO2 SLP245 T10221061
Loading
Personal Weather Stations






























Interactive Weather Map New forecast layout! Learn more

10-Day Weather Forecast

Advertisements
Track Severe Weather on mobile